Time;durP1;ratioP1;P1;durP2;ratioP2;P2;SDS_P1;SDS_P2;PMS_P1;PMS_P2;Temp;Humidity;BMP_temperature;BMP_pressure;BME280_temperature;BME280_humidity;BME280_pressure;Samples;Min_cycle;Max_cycle;Signal;HPM_P1;HPM_P2
2023/08/02 00:01:26;;;;;;;12.40;1.30;;;;;;;14.46;100.00;100205.97;4974402;28;20559;-82
2023/08/02 00:03:51;;;;;;;3.10;0.90;;;;;;;15.09;100.00;100277.94;4971288;28;20174;-80
2023/08/02 00:06:17;;;;;;;3.93;1.30;;;;;;;15.73;100.00;100366.09;4973090;28;20260;-82
2023/08/02 00:08:42;;;;;;;5.50;1.30;;;;;;;13.28;100.00;100016.75;4970131;28;20216;-85
2023/08/02 00:11:18;;;;;;;3.97;1.20;;;;;;;15.90;100.00;100399.38;4972586;28;20186;-80
2023/08/02 00:13:43;;;;;;;2.90;0.80;;;;;;;13.27;100.00;99999.75;4975833;28;20189;-81
2023/08/02 00:16:12;;;;;;;2.90;0.83;;;;;;;13.65;100.00;100079.19;4976020;28;20840;-81
2023/08/02 00:18:37;;;;;;;4.20;1.10;;;;;;;13.26;100.00;99973.88;4972920;28;20214;-82
2023/08/02 00:21:03;;;;;;;2.13;0.90;;;;;;;14.40;100.00;100161.88;4982723;28;20488;-83
2023/08/02 00:23:28;;;;;;;2.90;1.00;;;;;;;14.31;100.00;100197.56;4979091;28;20694;-83
2023/08/02 00:25:54;;;;;;;2.43;0.80;;;;;;;15.37;100.00;100358.16;4976948;28;20280;-82
2023/08/02 00:28:19;;;;;;;3.43;0.77;;;;;;;14.82;100.00;100309.28;4974629;28;20186;-81
2023/08/02 00:30:46;;;;;;;4.07;1.20;;;;;;;13.76;100.00;100097.22;4976803;28;20256;-76
2023/08/02 00:33:12;;;;;;;1.67;0.80;;;;;;;14.90;100.00;100269.22;4971125;28;20194;-82
2023/08/02 00:35:46;;;;;;;1.87;0.90;;;;;;;14.96;100.00;100261.22;4972913;28;20631;-79
2023/08/02 00:38:11;;;;;;;5.07;0.80;;;;;;;14.53;100.00;100247.16;4983922;28;20183;-82
2023/08/02 00:40:37;;;;;;;2.67;0.80;;;;;;;14.94;100.00;100317.34;4969778;28;20448;-81
2023/08/02 00:43:03;;;;;;;2.97;0.70;;;;;;;15.97;100.00;100456.88;4972432;28;20330;-80
2023/08/02 00:45:29;;;;;;;4.30;1.10;;;;;;;14.29;100.00;100156.53;4971665;28;20521;-79
2023/08/02 00:47:57;;;;;;;2.03;0.93;;;;;;;14.38;100.00;100206.38;4972512;28;20250;-85
2023/08/02 00:50:23;;;;;;;7.57;2.40;;;;;;;14.35;100.00;100180.69;4972661;28;20531;-80
2023/08/02 00:52:49;;;;;;;2.17;0.80;;;;;;;14.13;100.00;100193.16;4971496;28;20445;-82
2023/08/02 00:55:14;;;;;;;3.67;0.97;;;;;;;13.42;100.00;100073.84;4973594;28;20480;-78
2023/08/02 00:57:40;;;;;;;1.90;0.70;;;;;;;14.29;100.00;100205.06;4976821;28;20425;-81
2023/08/02 01:00:06;;;;;;;12.37;1.17;;;;;;;14.07;100.00;100162.56;4976835;28;20209;-81
2023/08/02 01:02:32;;;;;;;3.83;1.20;;;;;;;13.05;100.00;99945.69;4974307;28;20564;-79
2023/08/02 01:04:57;;;;;;;4.30;1.10;;;;;;;15.02;100.00;100288.06;4977601;28;20413;-82
2023/08/02 01:07:43;;;;;;;2.53;1.20;;;;;;;16.01;100.00;100430.97;4973463;28;20185;-81
2023/08/02 01:10:15;;;;;;;4.23;0.90;;;;;;;15.72;100.00;100395.03;4972752;28;20214;-82
2023/08/02 01:12:45;;;;;;;2.57;0.90;;;;;;;13.46;100.00;100048.91;4973423;28;20523;-80
2023/08/02 01:15:13;;;;;;;2.73;0.93;;;;;;;14.34;100.00;100216.78;4971593;28;21318;-82
2023/08/02 01:17:39;;;;;;;1.93;0.80;;;;;;;13.50;100.00;100063.53;4969233;28;20580;-79
2023/08/02 01:20:05;;;;;;;2.20;0.70;;;;;;;14.41;100.00;100201.31;4972732;28;21110;-80
2023/08/02 01:22:31;;;;;;;3.73;1.10;;;;;;;13.11;100.00;99997.75;4973074;28;20434;-79
2023/08/02 01:24:59;;;;;;;5.03;1.47;;;;;;;13.43;100.00;100017.06;4970445;28;20451;-83
2023/08/02 01:27:31;;;;;;;3.17;1.10;;;;;;;13.27;100.00;100034.75;4971112;28;20953;-82
2023/08/02 01:29:59;;;;;;;5.00;1.20;;;;;;;14.06;100.00;100184.38;4972623;28;20987;-83
2023/08/02 01:32:25;;;;;;;2.03;0.80;;;;;;;12.93;100.00;100009.50;4975747;28;20969;-81
2023/08/02 01:34:51;;;;;;;2.77;0.80;;;;;;;14.81;100.00;100221.22;4974503;28;20555;-79
2023/08/02 01:37:17;;;;;;;1.80;0.90;;;;;;;13.72;100.00;100109.56;4974779;28;20273;-82
2023/08/02 01:39:43;;;;;;;7.07;1.43;;;;;;;12.98;100.00;99930.72;4976041;28;20620;-82
2023/08/02 01:42:10;;;;;;;4.20;1.00;;;;;;;12.85;100.00;99935.28;4978918;28;20178;-79
2023/08/02 01:44:36;;;;;;;6.37;1.70;;;;;;;13.68;100.00;100151.50;4981572;28;20213;-82
2023/08/02 01:47:01;;;;;;;3.80;1.43;;;;;;;12.82;100.00;99957.28;4975206;28;20426;-83
2023/08/02 01:49:26;;;;;;;4.27;0.90;;;;;;;12.93;100.00;99966.41;4974941;28;20210;-80
2023/08/02 01:51:52;;;;;;;4.10;1.27;;;;;;;13.86;100.00;100112.00;4974948;28;20698;-81
2023/08/02 01:54:17;;;;;;;1.90;1.10;;;;;;;13.14;100.00;100044.94;4974348;28;20194;-81
2023/08/02 01:56:43;;;;;;;2.97;0.90;;;;;;;12.95;100.00;99956.22;4975390;28;20272;-79
2023/08/02 01:59:08;;;;;;;3.00;1.40;;;;;;;12.66;100.00;99923.00;4972336;28;20563;-82
2023/08/02 02:01:34;;;;;;;2.97;0.90;;;;;;;12.85;100.00;99953.31;4976035;28;21005;-79
2023/08/02 02:03:59;;;;;;;3.57;0.83;;;;;;;14.27;100.00;100243.09;4975398;28;20189;-82
2023/08/02 02:06:24;;;;;;;3.53;0.90;;;;;;;12.86;100.00;100006.06;4974685;28;20186;-84
2023/08/02 02:08:50;;;;;;;3.13;1.20;;;;;;;12.70;100.00;99988.78;4971720;28;20194;-82
2023/08/02 02:11:15;;;;;;;2.27;0.97;;;;;;;13.93;100.00;100194.38;4974675;28;20192;-80
2023/08/02 02:13:41;;;;;;;2.20;1.00;;;;;;;14.40;100.00;100210.44;4974223;28;20186;-80
2023/08/02 02:16:06;;;;;;;2.70;0.90;;;;;;;13.03;100.00;100050.09;4974216;28;20253;-83
2023/08/02 02:18:32;;;;;;;2.00;0.90;;;;;;;14.34;100.00;100262.66;4976280;28;20213;-80
2023/08/02 02:20:57;;;;;;;3.70;1.20;;;;;;;14.79;100.00;100315.97;4973159;28;20229;-79
2023/08/02 02:23:23;;;;;;;4.33;1.00;;;;;;;13.71;100.00;100186.06;4971962;28;20190;-79
2023/08/02 02:25:49;;;;;;;4.17;1.30;;;;;;;15.44;100.00;100424.75;4972200;28;22710;-82
2023/08/02 02:28:14;;;;;;;4.10;1.40;;;;;;;13.87;100.00;100203.41;4972694;28;20229;-80
2023/08/02 02:30:42;;;;;;;4.23;1.20;;;;;;;12.44;100.00;99961.25;4972182;28;20449;-79
2023/08/02 02:33:08;;;;;;;2.80;1.37;;;;;;;13.10;100.00;100048.09;4972351;28;20186;-80
2023/08/02 02:35:33;;;;;;;9.23;3.10;;;;;;;13.67;100.00;100206.44;4968756;28;20469;-78
2023/08/02 02:37:59;;;;;;;2.60;1.50;;;;;;;14.51;100.00;100315.91;4975350;28;20185;-79
2023/08/02 02:40:24;;;;;;;4.60;2.20;;;;;;;13.95;100.00;100207.63;4974583;28;20698;-78
2023/08/02 02:42:50;;;;;;;3.70;1.80;;;;;;;13.62;100.00;100140.84;4977243;28;20551;-79
2023/08/02 02:45:15;;;;;;;3.60;1.90;;;;;;;13.76;100.00;100229.28;4973473;28;20264;-79
2023/08/02 02:47:41;;;;;;;5.70;1.93;;;;;;;13.30;100.00;100116.97;4971440;28;20304;-82
2023/08/02 02:50:07;;;;;;;4.30;2.13;;;;;;;15.46;100.00;100509.94;4972800;28;20213;-79
2023/08/02 02:52:33;;;;;;;6.87;2.00;;;;;;;12.92;100.00;100133.53;4971000;28;20276;-79
2023/08/02 02:54:58;;;;;;;5.23;2.03;;;;;;;14.31;100.00;100333.28;4971935;28;20572;-78
2023/08/02 02:57:24;;;;;;;4.23;2.13;;;;;;;13.97;100.00;100326.81;4973412;28;20190;-79
2023/08/02 02:59:49;;;;;;;3.97;1.90;;;;;;;15.51;100.00;100501.94;4969691;28;20764;-78
2023/08/02 03:02:15;;;;;;;4.93;2.07;;;;;;;13.68;100.00;100271.94;4970710;28;20572;-83
2023/08/02 03:04:40;;;;;;;3.67;1.90;;;;;;;13.54;100.00;100195.94;4973228;28;20185;-81
2023/08/02 03:07:06;;;;;;;5.77;2.27;;;;;;;13.69;100.00;100239.38;4973758;28;20647;-78
2023/08/02 03:09:31;;;;;;;6.07;1.90;;;;;;;13.76;100.00;100237.38;4965884;28;20226;-81
2023/08/02 03:11:56;;;;;;;5.00;1.70;;;;;;;13.60;100.00;100221.94;4971720;28;20337;-81
2023/08/02 03:14:22;;;;;;;9.93;2.03;;;;;;;14.62;100.00;100348.28;4968421;28;20200;-79
2023/08/02 03:16:47;;;;;;;6.63;2.23;;;;;;;12.95;100.00;100081.91;4975989;28;20639;-81
2023/08/02 03:19:13;;;;;;;5.43;2.20;;;;;;;15.16;100.00;100480.41;4968703;28;20213;-79
2023/08/02 03:21:39;;;;;;;8.90;2.33;;;;;;;12.70;100.00;100031.81;4974346;28;20185;-81
2023/08/02 03:24:05;;;;;;;3.87;1.50;;;;;;;13.21;100.00;100145.25;4968605;28;24579;-81
2023/08/02 03:26:31;;;;;;;4.80;1.63;;;;;;;13.52;100.00;100171.91;4978912;28;20190;-84
2023/08/02 03:28:56;;;;;;;3.30;1.50;;;;;;;13.85;100.00;100218.97;4968607;28;20462;-80
2023/08/02 03:31:22;;;;;;;3.70;1.90;;;;;;;14.98;100.00;100424.63;4971970;28;20186;-80
2023/08/02 03:33:47;;;;;;;4.53;1.80;;;;;;;15.55;100.00;100505.78;4968972;28;20221;-79
2023/08/02 03:36:13;;;;;;;4.43;2.60;;;;;;;12.71;100.00;100009.22;4971427;28;20709;-79
2023/08/02 03:38:38;;;;;;;6.77;2.00;;;;;;;13.40;100.00;100154.09;4969585;28;20227;-78
2023/08/02 03:41:03;;;;;;;5.80;2.03;;;;;;;14.87;100.00;100374.19;4968987;28;20186;-77
2023/08/02 03:43:29;;;;;;;3.90;1.83;;;;;;;12.62;100.00;99984.53;4972501;28;20186;-79
2023/08/02 03:45:54;;;;;;;4.90;1.87;;;;;;;13.71;100.00;100187.94;4969794;28;20217;-78
2023/08/02 03:48:20;;;;;;;4.27;1.97;;;;;;;13.25;100.00;100119.50;4965435;28;20678;-80
2023/08/02 03:50:46;;;;;;;4.30;2.13;;;;;;;13.72;100.00;100176.13;4969246;28;20312;-82
2023/08/02 03:53:11;;;;;;;5.10;2.03;;;;;;;13.76;100.00;100198.84;4969817;28;20746;-78
2023/08/02 03:55:36;;;;;;;3.03;2.07;;;;;;;14.27;100.00;100286.25;4968325;28;20261;-79
2023/08/02 03:58:02;;;;;;;7.10;2.13;;;;;;;12.19;100.00;99926.50;4965813;28;20221;-78
2023/08/02 04:00:27;;;;;;;4.20;1.80;;;;;;;12.46;100.00;99963.69;4966259;28;20578;-79
2023/08/02 04:02:55;;;;;;;6.00;1.90;;;;;;;14.89;100.00;100356.66;4972747;28;20225;-78
2023/08/02 04:05:20;;;;;;;4.63;1.87;;;;;;;14.45;100.00;100310.38;4967252;28;20604;-79
2023/08/02 04:07:45;;;;;;;4.00;1.83;;;;;;;12.65;100.00;99977.88;4967475;28;20861;-79
2023/08/02 04:10:11;;;;;;;4.40;2.20;;;;;;;12.56;100.00;99996.25;4972201;28;21261;-80
2023/08/02 04:12:36;;;;;;;7.73;2.20;;;;;;;15.36;100.00;100442.16;4968607;28;20564;-78
2023/08/02 04:15:03;;;;;;;6.80;2.13;;;;;;;13.05;100.00;100082.97;4967740;28;20714;-77
2023/08/02 04:17:28;;;;;;;8.13;2.27;;;;;;;13.87;100.00;100227.66;4970957;28;20982;-77
2023/08/02 04:19:54;;;;;;;6.17;2.20;;;;;;;14.17;100.00;100235.59;4970072;28;20918;-81
2023/08/02 04:22:20;;;;;;;7.17;2.93;;;;;;;13.52;100.00;100163.81;4972530;28;20598;-79
2023/08/02 04:24:47;;;;;;;8.13;2.80;;;;;;;13.58;100.00;100170.13;4969870;28;20868;-79
2023/08/02 04:27:12;;;;;;;4.97;1.97;;;;;;;14.34;100.00;100276.16;4971830;28;20437;-78
2023/08/02 04:29:38;;;;;;;5.17;1.83;;;;;;;13.63;100.00;100137.13;4975443;28;20946;-78
2023/08/02 04:32:04;;;;;;;4.60;1.87;;;;;;;13.92;100.00;100198.13;4974661;28;20206;-78
2023/08/02 04:34:30;;;;;;;6.90;2.07;;;;;;;13.66;100.00;100177.06;4983780;28;20214;-77
2023/08/02 04:36:55;;;;;;;9.30;2.10;;;;;;;13.66;100.00;100175.19;4973963;28;20860;-78
2023/08/02 04:39:20;;;;;;;8.70;2.37;;;;;;;15.52;100.00;100436.00;4974640;28;20217;-79
2023/08/02 04:41:46;;;;;;;5.20;2.10;;;;;;;13.66;100.00;100166.28;4974199;28;20581;-79
2023/08/02 04:44:11;;;;;;;6.33;2.87;;;;;;;12.48;100.00;100011.91;4977415;28;20182;-79
2023/08/02 04:46:37;;;;;;;8.23;3.23;;;;;;;14.12;100.00;100254.38;4978065;28;20190;-79
2023/08/02 04:49:03;;;;;;;9.60;3.13;;;;;;;12.75;100.00;100015.78;4969024;28;20210;-77
2023/08/02 04:51:28;;;;;;;9.60;3.33;;;;;;;12.84;100.00;100035.09;4972954;28;20244;-80
2023/08/02 04:53:54;;;;;;;10.67;3.97;;;;;;;14.14;100.00;100217.19;4969963;28;20194;-79
2023/08/02 04:56:19;;;;;;;8.00;3.27;;;;;;;12.59;100.00;99955.41;4968585;28;20627;-78
2023/08/02 04:58:45;;;;;;;12.47;3.17;;;;;;;13.79;100.00;100145.28;4971034;28;20209;-77
2023/08/02 05:01:11;;;;;;;9.10;3.30;;;;;;;13.48;100.00;100116.00;4976947;28;20189;-77
2023/08/02 05:03:36;;;;;;;8.97;3.53;;;;;;;12.78;100.00;100003.72;4972277;28;20449;-79
2023/08/02 05:06:04;;;;;;;9.70;3.23;;;;;;;14.46;100.00;100273.41;4967909;28;20193;-77
2023/08/02 05:08:32;;;;;;;9.90;3.70;;;;;;;12.70;100.00;99982.53;4970638;28;20240;-78
2023/08/02 05:10:58;;;;;;;9.53;3.30;;;;;;;13.48;100.00;100121.41;4973204;28;20440;-78
2023/08/02 05:13:24;;;;;;;9.60;3.20;;;;;;;15.24;100.00;100398.97;4972611;28;20518;-77
2023/08/02 05:15:50;;;;;;;9.10;3.63;;;;;;;13.93;100.00;100155.81;4970755;28;20206;-78
2023/08/02 05:18:16;;;;;;;11.90;4.10;;;;;;;14.32;100.00;100191.94;4969845;28;20445;-78
2023/08/02 05:20:41;;;;;;;7.17;3.43;;;;;;;13.92;100.00;100140.69;4975701;28;20932;-77
2023/08/02 05:23:07;;;;;;;13.53;3.80;;;;;;;13.90;100.00;100115.84;4970532;28;20675;-79
2023/08/02 05:25:34;;;;;;;9.90;3.60;;;;;;;14.06;100.00;100128.59;4966939;28;20197;-77
2023/08/02 05:27:59;;;;;;;8.80;4.10;;;;;;;14.52;100.00;100226.63;4974398;28;20697;-76
2023/08/02 05:30:27;;;;;;;9.03;3.40;;;;;;;13.69;100.00;100071.50;4971510;28;20457;-76
2023/08/02 05:32:54;;;;;;;8.27;3.40;;;;;;;12.30;100.00;99824.59;4971563;28;20733;-80
2023/08/02 05:35:19;;;;;;;9.30;4.20;;;;;;;12.12;100.00;99828.19;4973081;28;20472;-78
2023/08/02 05:37:45;;;;;;;9.67;3.83;;;;;;;12.59;100.00;99911.56;4969255;28;20986;-78
2023/08/02 05:40:11;;;;;;;10.67;3.70;;;;;;;13.49;100.00;100010.72;4975726;28;20209;-79
2023/08/02 05:42:36;;;;;;;9.77;3.57;;;;;;;13.78;100.00;100072.75;4980617;28;20191;-78
2023/08/02 05:45:02;;;;;;;13.20;3.47;;;;;;;12.43;100.00;99835.09;4977206;28;20424;-80
2023/08/02 05:47:28;;;;;;;9.00;3.40;;;;;;;13.11;100.00;99942.03;4977841;28;20236;-79
2023/08/02 05:49:54;;;;;;;8.13;3.67;;;;;;;13.23;100.00;100016.59;4976090;28;20454;-81
2023/08/02 05:52:19;;;;;;;9.00;3.23;;;;;;;13.72;100.00;100017.09;4975396;28;21163;-78
2023/08/02 05:54:44;;;;;;;8.43;3.23;;;;;;;12.19;100.00;99767.06;4971633;28;20773;-78
2023/08/02 05:57:10;;;;;;;10.63;3.50;;;;;;;13.49;100.00;99994.56;4974006;28;20542;-80
2023/08/02 05:59:37;;;;;;;8.87;4.03;;;;;;;14.49;100.00;100162.31;4969877;28;20584;-79
2023/08/02 06:02:07;;;;;;;6.93;3.27;;;;;;;12.93;100.00;99858.75;4971724;28;20228;-77
2023/08/02 06:04:34;;;;;;;8.37;3.53;;;;;;;14.31;100.00;100052.72;4976626;28;20580;-78
2023/08/02 06:07:00;;;;;;;8.07;3.77;;;;;;;13.24;100.00;99961.69;4972403;28;20437;-78
2023/08/02 06:09:25;;;;;;;9.10;3.30;;;;;;;13.38;100.00;99987.31;4969242;28;20889;-78
2023/08/02 06:11:51;;;;;;;13.10;4.17;;;;;;;12.46;100.00;99783.50;4973637;28;20554;-79
2023/08/02 06:14:16;;;;;;;12.07;4.07;;;;;;;12.55;100.00;99765.13;4973377;28;20186;-80
2023/08/02 06:16:42;;;;;;;8.73;4.10;;;;;;;15.48;100.00;100191.59;4973235;28;20206;-77
2023/08/02 06:19:08;;;;;;;8.77;4.57;;;;;;;12.66;100.00;99767.78;4968025;28;20217;-79
2023/08/02 06:21:34;;;;;;;10.23;4.83;;;;;;;13.26;100.00;99903.06;4968129;28;20671;-78
2023/08/02 06:24:00;;;;;;;8.63;4.57;;;;;;;12.83;100.00;99737.44;4967495;28;20178;-77
2023/08/02 06:26:27;;;;;;;13.10;3.97;;;;;;;14.68;100.00;100034.22;4968044;28;20446;-79
2023/08/02 06:28:53;;;;;;;10.13;4.10;;;;;;;13.46;100.00;99878.38;4966975;28;20473;-78
2023/08/02 06:31:18;;;;;;;12.63;5.87;;;;;;;14.27;100.00;99980.63;4966913;28;20443;-82
2023/08/02 06:33:44;;;;;;;6.37;3.60;;;;;;;14.08;100.00;99931.50;4969184;28;20190;-80
2023/08/02 06:36:09;;;;;;;10.50;3.70;;;;;;;14.87;100.00;100051.00;4970433;28;20220;-77
2023/08/02 06:38:35;;;;;;;10.17;4.00;;;;;;;15.12;100.00;100077.56;4972120;28;20678;-77
2023/08/02 06:41:00;;;;;;;5.93;2.63;;;;;;;15.51;100.00;100123.53;4968647;28;20221;-81
2023/08/02 06:43:26;;;;;;;8.10;4.47;;;;;;;14.20;100.00;99911.50;4966820;28;20186;-79
2023/08/02 06:45:51;;;;;;;8.50;3.60;;;;;;;14.25;100.00;99925.03;4970670;28;20178;-78
2023/08/02 06:48:19;;;;;;;9.70;4.00;;;;;;;12.74;100.00;99685.88;4963775;28;20212;-81
2023/08/02 06:53:33;;;;;;;9.37;3.87;;;;;;;14.43;100.00;99974.41;4951132;28;20500;-81
2023/08/02 06:55:59;;;;;;;5.70;3.20;;;;;;;14.15;100.00;99905.19;4963304;28;20469;-77
2023/08/02 06:58:24;;;;;;;7.87;3.90;;;;;;;14.27;100.00;99883.53;4967743;28;20658;-77
2023/08/02 07:00:50;;;;;;;9.37;4.47;;;;;;;13.56;100.00;99833.56;4974286;28;20191;-78
2023/08/02 07:03:15;;;;;;;8.10;3.73;;;;;;;13.72;100.00;99802.31;4968314;28;20217;-77
2023/08/02 07:05:42;;;;;;;4.83;3.10;;;;;;;15.00;100.00;99959.91;4968286;28;20561;-81
2023/08/02 07:08:07;;;;;;;8.70;3.40;;;;;;;16.16;100.00;100113.03;4970439;28;20186;-79
2023/08/02 07:10:32;;;;;;;9.50;3.33;;;;;;;14.94;100.00;99915.00;4971446;28;20475;-79
2023/08/02 07:12:58;;;;;;;6.73;2.80;;;;;;;14.69;100.00;99900.09;4970716;28;20767;-80
2023/08/02 07:15:23;;;;;;;11.43;3.20;;;;;;;14.19;100.00;99831.63;4971833;28;20205;-81
2023/08/02 07:17:49;;;;;;;7.00;3.47;;;;;;;13.92;100.00;99755.19;4968517;28;20197;-80
2023/08/02 07:20:15;;;;;;;6.93;3.07;;;;;;;14.59;100.00;99838.69;4972649;28;20209;-80
2023/08/02 07:22:43;;;;;;;5.60;3.10;;;;;;;13.61;100.00;99665.81;4967971;28;20271;-79
2023/08/02 07:25:09;;;;;;;5.87;2.60;;;;;;;14.78;100.00;99831.13;4969560;28;20182;-78
2023/08/02 07:27:35;;;;;;;5.77;2.77;;;;;;;16.42;100.00;100097.88;4971543;28;20437;-78
2023/08/02 07:30:02;;;;;;;8.87;3.90;;;;;;;13.90;100.00;99677.25;4970243;28;20448;-79
2023/08/02 07:32:28;;;;;;;7.83;3.43;;;;;;;13.90;100.00;99693.44;4970616;28;20437;-80
2023/08/02 07:34:54;;;;;;;6.73;4.40;;;;;;;15.30;100.00;99981.09;4967810;28;20505;-78
2023/08/02 07:37:19;;;;;;;8.13;4.33;;;;;;;14.61;100.00;99843.81;4969348;28;20568;-80
2023/08/02 07:39:45;;;;;;;7.50;3.30;;;;;;;13.64;100.00;99653.72;4969563;28;20209;-78
2023/08/02 07:42:10;;;;;;;5.50;2.87;;;;;;;13.81;100.00;99708.41;4967558;28;20197;-79
2023/08/02 07:44:37;;;;;;;6.00;2.90;;;;;;;15.21;100.00;99879.94;4967564;28;20256;-80
2023/08/02 07:47:04;;;;;;;5.60;3.00;;;;;;;13.61;100.00;99638.84;4968748;28;20194;-76
2023/08/02 07:49:30;;;;;;;6.50;3.37;;;;;;;14.77;100.00;99805.19;4968790;28;20461;-81
2023/08/02 07:51:56;;;;;;;5.40;2.90;;;;;;;13.94;100.00;99697.28;4969146;28;20911;-79
2023/08/02 07:54:21;;;;;;;8.70;3.43;;;;;;;15.47;100.00;99903.47;4966432;28;20457;-80
2023/08/02 07:56:47;;;;;;;5.73;3.40;;;;;;;15.49;100.00;99909.44;4973505;28;20217;-78
2023/08/02 07:59:12;;;;;;;6.53;3.00;;;;;;;15.63;100.00;99930.69;4971150;28;20241;-80
2023/08/02 08:01:37;;;;;;;8.10;3.63;;;;;;;14.67;100.00;99776.19;4971745;28;20197;-79
2023/08/02 08:04:03;;;;;;;6.77;3.70;;;;;;;16.66;100.00;100017.13;4970639;28;20178;-80
2023/08/02 08:06:28;;;;;;;9.63;3.57;;;;;;;15.05;100.00;99787.97;4973857;28;20182;-77
2023/08/02 08:08:54;;;;;;;7.47;3.03;;;;;;;14.05;100.00;99593.06;4972451;28;20209;-80
2023/08/02 08:11:19;;;;;;;7.13;3.40;;;;;;;16.68;100.00;100004.97;4974298;28;20196;-78
2023/08/02 08:13:45;;;;;;;6.10;3.47;;;;;;;14.26;100.00;99623.75;4972464;28;20191;-78
2023/08/02 08:16:10;;;;;;;6.80;3.30;;;;;;;14.44;100.00;99636.13;4969540;28;20219;-77
2023/08/02 08:18:36;;;;;;;6.00;3.10;;;;;;;13.98;100.00;99523.16;4969851;28;20308;-78
2023/08/02 08:21:03;;;;;;;9.30;3.70;;;;;;;14.30;100.00;99551.28;4970456;28;20193;-79
2023/08/02 08:23:30;;;;;;;6.93;3.63;;;;;;;13.89;100.00;99481.56;4971927;28;20186;-80
2023/08/02 08:25:56;;;;;;;8.07;3.50;;;;;;;13.87;100.00;99478.31;4968671;28;20449;-80
2023/08/02 08:28:21;;;;;;;6.47;3.60;;;;;;;16.76;100.00;99956.84;4978857;28;20889;-81
2023/08/02 08:30:47;;;;;;;9.13;3.70;;;;;;;14.87;100.00;99677.63;4971676;28;20186;-81
2023/08/02 08:33:12;;;;;;;6.30;3.10;;;;;;;15.62;100.00;99767.66;4969593;28;20192;-81
2023/08/02 08:35:38;;;;;;;5.30;3.40;;;;;;;13.79;100.00;99446.41;4968837;28;20707;-80
2023/08/02 08:38:03;;;;;;;10.50;3.17;;;;;;;16.10;100.00;99819.19;4972441;28;20240;-79
2023/08/02 08:40:29;;;;;;;4.93;2.67;;;;;;;16.71;100.00;99908.88;4972568;28;20209;-78
2023/08/02 08:42:56;;;;;;;4.87;2.60;;;;;;;15.74;100.00;99717.00;4973719;28;20189;-79
2023/08/02 08:45:23;;;;;;;5.90;3.00;;;;;;;14.89;100.00;99624.16;4973887;28;20313;-79
2023/08/02 08:47:50;;;;;;;4.87;2.97;;;;;;;15.23;100.00;99646.31;4971228;28;20448;-82
2023/08/02 08:50:18;;;;;;;5.50;2.23;;;;;;;14.75;100.00;99504.19;4971947;28;20532;-76
2023/08/02 08:52:50;;;;;;;6.97;3.00;;;;;;;15.04;100.00;99618.91;4979343;28;20443;-80
2023/08/02 08:55:17;;;;;;;5.37;2.90;;;;;;;14.65;100.00;99551.63;4970103;28;20472;-77
2023/08/02 08:57:45;;;;;;;7.13;2.83;;;;;;;13.87;100.00;99385.84;4974796;28;20472;-79
2023/08/02 09:00:12;;;;;;;5.47;2.07;;;;;;;16.63;100.00;99839.78;4972810;28;20453;-81
2023/08/02 09:02:39;;;;;;;5.70;2.63;;;;;;;14.23;100.00;99444.41;4975495;28;20430;-80
2023/08/02 09:05:04;;;;;;;4.20;2.40;;;;;;;14.46;100.00;99467.53;4972907;28;20546;-77
2023/08/02 09:07:33;;;;;;;6.47;2.40;;;;;;;15.03;100.00;99562.44;4973033;28;20469;-83
2023/08/02 09:09:58;;;;;;;6.60;2.70;;;;;;;14.60;100.00;99550.75;4973598;28;20284;-83
2023/08/02 09:12:24;;;;;;;5.97;2.80;;;;;;;14.81;100.00;99570.63;4973188;28;20587;-84
2023/08/02 09:15:04;;;;;;;6.73;2.97;;;;;;;14.80;100.00;99587.91;4965723;28;20200;-82
2023/08/02 09:17:49;;;;;;;5.50;2.57;;;;;;;15.37;100.00;99634.00;4972971;28;20895;-82
2023/08/02 09:20:15;;;;;;;4.83;2.30;;;;;;;13.82;100.00;99353.47;4972440;28;20467;-80
2023/08/02 09:22:41;;;;;;;4.23;2.50;;;;;;;13.96;100.00;99411.28;4973717;28;20544;-83
2023/08/02 09:25:08;;;;;;;3.80;2.80;;;;;;;14.30;100.00;99438.81;4971392;28;20512;-80
2023/08/02 09:27:34;;;;;;;9.03;3.20;;;;;;;14.10;100.00;99471.78;4973313;28;20253;-80
2023/08/02 09:29:59;;;;;;;7.77;3.30;;;;;;;14.09;100.00;99513.31;4967822;28;20468;-78
2023/08/02 09:32:26;;;;;;;4.90;2.37;;;;;;;13.67;100.00;99379.19;4972960;28;20941;-81
2023/08/02 09:34:55;;;;;;;4.33;1.93;;;;;;;13.45;100.00;99410.75;4970836;28;20442;-85
2023/08/02 09:37:35;;;;;;;4.00;2.20;;;;;;;13.61;100.00;99434.09;4977506;28;21028;-80
2023/08/02 09:40:04;;;;;;;4.70;2.40;;;;;;;13.92;100.00;99513.41;4971100;28;20500;-84
2023/08/02 09:42:30;;;;;;;3.67;2.10;;;;;;;14.90;100.00;99677.09;4972011;28;21005;-83
2023/08/02 09:45:01;;;;;;;4.47;2.57;;;;;;;14.96;100.00;99703.09;4973201;28;20434;-85
2023/08/02 09:47:27;;;;;;;6.80;2.60;;;;;;;14.66;100.00;99638.78;4971906;28;20434;-86
2023/08/02 09:50:16;;;;;;;6.93;2.97;;;;;;;13.55;100.00;99446.69;4969807;28;20473;-83
2023/08/02 09:52:41;;;;;;;2.90;1.80;;;;;;;14.27;100.00;99568.78;4973034;28;20510;-84
2023/08/02 09:55:08;;;;;;;6.57;2.50;;;;;;;16.13;100.00;99816.75;4972323;28;20974;-85
2023/08/02 09:57:33;;;;;;;3.97;2.33;;;;;;;13.99;100.00;99491.63;4977051;28;20244;-82
2023/08/02 10:00:06;;;;;;;7.30;2.83;;;;;;;13.39;100.00;99317.50;4969837;28;20461;-78
2023/08/02 10:02:34;;;;;;;4.07;2.13;;;;;;;14.92;100.00;99589.34;4970498;28;20197;-85
2023/08/02 10:05:02;;;;;;;5.20;2.50;;;;;;;14.45;100.00;99536.03;4973244;28;21044;-82
2023/08/02 10:08:14;;;;;;;5.20;2.43;;;;;;;16.14;100.00;99801.34;4979188;28;20445;-82
2023/08/02 10:10:44;;;;;;;3.77;2.23;;;;;;;14.60;100.00;99578.56;4968462;28;20440;-83
2023/08/02 10:13:25;;;;;;;4.93;2.23;;;;;;;16.27;100.00;99798.19;4974805;28;20440;-82
2023/08/02 10:15:51;;;;;;;5.80;2.40;;;;;;;14.64;100.00;99571.59;4968188;28;20477;-78
2023/08/02 10:18:18;;;;;;;4.07;2.30;;;;;;;13.40;100.00;99314.56;4972314;28;20455;-81
2023/08/02 10:20:45;;;;;;;6.17;2.80;;;;;;;14.24;100.00;99494.59;4969000;28;20437;-82
2023/08/02 10:23:11;;;;;;;6.43;2.97;;;;;;;14.69;100.00;99506.88;4979370;28;20443;-82
2023/08/02 10:25:37;;;;;;;5.60;2.87;;;;;;;14.59;100.00;99506.78;4971791;28;20430;-79
2023/08/02 10:28:03;;;;;;;3.70;2.13;;;;;;;15.32;100.00;99588.03;4970914;28;20189;-77
2023/08/02 10:30:30;;;;;;;5.40;3.00;;;;;;;14.33;100.00;99451.78;4972010;28;20217;-85
2023/08/02 10:33:19;;;;;;;3.83;2.50;;;;;;;14.34;100.00;99422.91;4971431;28;20449;-84
2023/08/02 10:36:02;;;;;;;4.60;2.50;;;;;;;15.46;100.00;99601.91;4974673;28;20469;-86
2023/08/02 10:38:39;;;;;;;5.23;2.50;;;;;;;16.55;100.00;99742.84;4974213;28;20448;-80
2023/08/02 10:41:14;;;;;;;5.30;2.53;;;;;;;14.88;100.00;99530.75;4966355;28;20607;-84
2023/08/02 10:43:54;;;;;;;4.30;2.10;;;;;;;16.52;100.00;99753.38;4971377;28;20498;-82
2023/08/02 10:46:25;;;;;;;4.83;2.70;;;;;;;16.62;100.00;99743.41;4970522;28;20885;-84
2023/08/02 10:48:55;;;;;;;7.13;2.87;;;;;;;15.46;100.00;99587.59;4970027;28;20463;-79
2023/08/02 10:51:27;;;;;;;5.60;3.27;;;;;;;16.31;100.00;99739.75;4974079;28;20563;-81
2023/08/02 10:54:15;;;;;;;5.00;2.73;;;;;;;16.31;100.00;99747.88;4971462;28;20948;-84
2023/08/02 10:56:57;;;;;;;5.10;3.20;;;;;;;16.35;100.00;99731.94;4971774;28;20524;-84
2023/08/02 10:59:22;;;;;;;4.60;2.67;;;;;;;16.54;100.00;99716.84;4968556;28;20464;-82
2023/08/02 11:01:59;;;;;;;4.90;2.77;;;;;;;14.15;100.00;99328.94;4975832;28;20445;-84
2023/08/02 11:04:26;;;;;;;5.47;3.10;;;;;;;14.26;100.00;99337.88;4971986;28;20190;-80
2023/08/02 11:06:51;;;;;;;6.60;3.77;;;;;;;15.15;100.00;99515.25;4971368;28;20552;-86
2023/08/02 11:09:17;;;;;;;4.40;2.60;;;;;;;15.24;100.00;99503.97;4970334;28;20933;-84
2023/08/02 11:11:43;;;;;;;4.10;2.70;;;;;;;15.03;100.00;99420.16;4971218;28;20607;-86
2023/08/02 11:14:09;;;;;;;4.93;2.60;;;;;;;14.34;100.00;99304.22;4971445;28;20186;-82
2023/08/02 11:16:41;;;;;;;6.03;3.20;;;;;;;15.64;100.00;99548.47;4972254;28;20212;-86
2023/08/02 11:19:10;;;;;;;6.10;3.40;;;;;;;16.64;100.00;99753.97;4971199;28;20951;-86
2023/08/02 11:21:38;;;;;;;6.30;3.50;;;;;;;14.02;100.00;99342.84;4971690;28;20499;-86
2023/08/02 11:24:04;;;;;;;6.30;2.80;;;;;;;14.30;100.00;99360.59;4972513;28;20956;-87